Time;durP1;ratioP1;P1;durP2;ratioP2;P2;SDS_P1;SDS_P2;PMS_P1;PMS_P2;Temp;Humidity;BMP_temperature;BMP_pressure;BME280_temperature;BME280_humidity;BME280_pressure;Samples;Min_cycle;Max_cycle;Signal;HPM_P1;HPM_P2
2023/10/06 00:04:55;;;;;;;;;;;20.80;56.80;;;;;;10245290;28;90102;-60
2023/10/06 00:09:57;;;;;;;;;;;20.80;56.60;;;;;;10237597;28;90245;-56
2023/10/06 00:14:59;;;;;;;;;;;20.80;56.50;;;;;;10236683;28;90006;-56
2023/10/06 00:20:05;;;;;;;;;;;20.80;56.40;;;;;;10242908;28;90688;-56
2023/10/06 00:25:17;;;;;;;;;;;20.80;56.30;;;;;;10250675;28;91394;-56
2023/10/06 00:30:20;;;;;;;;;;;20.80;56.30;;;;;;10233697;28;88236;-56
2023/10/06 00:35:30;;;;;;;;;;;20.80;56.20;;;;;;10246694;28;89578;-56
2023/10/06 00:40:35;;;;;;;;;;;20.80;56.10;;;;;;10224828;28;89181;-56
2023/10/06 00:45:39;;;;;;;;;;;20.80;56.00;;;;;;10246591;28;89849;-57
2023/10/06 00:50:42;;;;;;;;;;;20.80;55.90;;;;;;10239968;28;89029;-56
2023/10/06 00:55:44;;;;;;;;;;;20.80;55.90;;;;;;10250830;28;90001;-56
2023/10/06 01:06:12;;;;;;;;;;;20.80;55.80;;;;;;10318602;22;92591;-49
2023/10/06 01:11:17;;;;;;;;;;;20.80;55.70;;;;;;10155307;28;90133;-50
2023/10/06 01:16:26;;;;;;;;;;;20.80;55.60;;;;;;10163261;28;89037;-48
2023/10/06 01:21:29;;;;;;;;;;;20.80;55.60;;;;;;10163724;28;89257;-47
2023/10/06 01:26:30;;;;;;;;;;;20.80;55.50;;;;;;10152221;28;90147;-50
2023/10/06 01:31:37;;;;;;;;;;;20.80;55.40;;;;;;10158276;28;90342;-47
2023/10/06 01:36:39;;;;;;;;;;;20.80;55.40;;;;;;10152414;28;91070;-47
2023/10/06 01:41:41;;;;;;;;;;;20.80;55.30;;;;;;10159506;28;89768;-52
2023/10/06 01:46:44;;;;;;;;;;;20.80;55.20;;;;;;10164095;28;89958;-52
2023/10/06 01:51:46;;;;;;;;;;;20.80;55.20;;;;;;10157205;28;90224;-51
2023/10/06 01:57:09;;;;;;;;;;;20.80;55.20;;;;;;10163382;28;89073;-52
2023/10/06 02:02:13;;;;;;;;;;;20.80;55.10;;;;;;10166673;28;89695;-52
2023/10/06 02:07:15;;;;;;;;;;;20.80;55.10;;;;;;10172692;28;88755;-47
2023/10/06 02:12:17;;;;;;;;;;;20.70;55.00;;;;;;10156117;28;90188;-46
2023/10/06 02:17:19;;;;;;;;;;;20.70;55.00;;;;;;10163807;28;90061;-50
2023/10/06 02:22:20;;;;;;;;;;;20.70;55.00;;;;;;10164133;28;89121;-47
2023/10/06 02:27:22;;;;;;;;;;;20.70;54.90;;;;;;10153514;28;89743;-48
2023/10/06 02:32:24;;;;;;;;;;;20.70;54.80;;;;;;10152617;28;89976;-47
2023/10/06 02:37:26;;;;;;;;;;;20.70;54.90;;;;;;10160026;28;89019;-47
2023/10/06 02:42:28;;;;;;;;;;;20.70;54.80;;;;;;10166346;28;89027;-48
2023/10/06 02:47:29;;;;;;;;;;;20.70;54.80;;;;;;10165331;28;89067;-46
2023/10/06 02:52:37;;;;;;;;;;;20.70;54.60;;;;;;10161926;28;89687;-48
2023/10/06 02:57:45;;;;;;;;;;;20.70;54.70;;;;;;10145088;28;90252;-47
2023/10/06 03:02:56;;;;;;;;;;;20.70;54.80;;;;;;10146351;28;89738;-47
2023/10/06 03:08:09;;;;;;;;;;;20.60;54.60;;;;;;10164549;28;89011;-47
2023/10/06 03:13:15;;;;;;;;;;;20.60;54.60;;;;;;10157231;28;90659;-52
2023/10/06 03:18:17;;;;;;;;;;;20.60;54.50;;;;;;10152590;28;90714;-47
2023/10/06 03:28:36;;;;;;;;;;;20.60;54.50;;;;;;10148657;28;90389;-47
2023/10/06 03:33:38;;;;;;;;;;;20.70;54.60;;;;;;10137585;28;89780;-47
2023/10/06 03:38:44;;;;;;;;;;;20.60;54.40;;;;;;10132238;28;89099;-48
2023/10/06 03:43:53;;;;;;;;;;;20.60;54.50;;;;;;10158004;28;89020;-51
2023/10/06 03:48:55;;;;;;;;;;;20.60;54.30;;;;;;10152366;28;89428;-49
2023/10/06 03:53:57;;;;;;;;;;;20.60;54.40;;;;;;10163764;28;89306;-50
2023/10/06 03:59:12;;;;;;;;;;;20.60;54.30;;;;;;10157349;28;89648;-53
2023/10/06 04:04:15;;;;;;;;;;;20.60;54.30;;;;;;10155168;28;90088;-51
2023/10/06 04:09:27;;;;;;;;;;;20.60;54.20;;;;;;10156462;28;90650;-50
2023/10/06 04:14:31;;;;;;;;;;;20.60;54.20;;;;;;10164055;28;89260;-47
2023/10/06 04:19:34;;;;;;;;;;;20.70;54.10;;;;;;10150680;28;90059;-47
2023/10/06 04:24:36;;;;;;;;;;;20.70;54.10;;;;;;10154520;28;89675;-52
2023/10/06 04:29:39;;;;;;;;;;;20.70;54.20;;;;;;10169639;28;90168;-49
2023/10/06 04:34:41;;;;;;;;;;;20.70;54.10;;;;;;10159489;28;90273;-48
2023/10/06 04:39:43;;;;;;;;;;;20.70;54.00;;;;;;10165110;28;89291;-51
2023/10/06 04:44:48;;;;;;;;;;;20.70;53.90;;;;;;10166550;28;89010;-47
2023/10/06 04:49:52;;;;;;;;;;;20.70;53.90;;;;;;10158775;28;90013;-49
2023/10/06 04:54:54;;;;;;;;;;;20.70;53.90;;;;;;10146061;28;90037;-48
2023/10/06 04:59:56;;;;;;;;;;;20.70;53.80;;;;;;10165769;28;90369;-48
2023/10/06 05:04:58;;;;;;;;;;;20.60;53.80;;;;;;10163459;28;90341;-49
2023/10/06 05:10:00;;;;;;;;;;;20.70;53.70;;;;;;10161606;28;89422;-50
2023/10/06 05:15:02;;;;;;;;;;;20.60;53.90;;;;;;10147841;28;91064;-50
2023/10/06 05:20:04;;;;;;;;;;;20.70;54.10;;;;;;10150061;28;89916;-52
2023/10/06 05:25:13;;;;;;;;;;;20.60;54.00;;;;;;10144956;28;90372;-47
2023/10/06 05:30:15;;;;;;;;;;;20.60;54.00;;;;;;10161699;28;90706;-51
2023/10/06 05:35:18;;;;;;;;;;;20.60;54.00;;;;;;10144883;28;89218;-50
2023/10/06 05:40:20;;;;;;;;;;;20.60;55.30;;;;;;10144907;28;90079;-50
2023/10/06 05:45:23;;;;;;;;;;;20.60;54.30;;;;;;10150283;28;92079;-52
2023/10/06 05:50:28;;;;;;;;;;;20.60;54.30;;;;;;10161599;28;90865;-52
2023/10/06 05:55:35;;;;;;;;;;;20.60;54.30;;;;;;10145870;28;88858;-51
2023/10/06 06:00:43;;;;;;;;;;;20.60;54.30;;;;;;10164993;28;90250;-52
2023/10/06 06:05:47;;;;;;;;;;;20.60;54.50;;;;;;10164333;28;90093;-51
2023/10/06 06:10:49;;;;;;;;;;;20.60;54.60;;;;;;10150480;28;89823;-47
2023/10/06 06:15:51;;;;;;;;;;;20.60;54.60;;;;;;10162438;28;89679;-50
2023/10/06 06:20:53;;;;;;;;;;;20.60;54.60;;;;;;10171438;28;89104;-47
2023/10/06 06:25:55;;;;;;;;;;;20.60;54.70;;;;;;10165716;28;89726;-48
2023/10/06 06:31:03;;;;;;;;;;;20.70;54.80;;;;;;10165393;28;88830;-49
2023/10/06 06:36:05;;;;;;;;;;;20.70;54.80;;;;;;10162124;28;90326;-48
2023/10/06 06:41:08;;;;;;;;;;;20.60;54.90;;;;;;10157643;28;90859;-47
2023/10/06 06:46:10;;;;;;;;;;;20.60;55.10;;;;;;10147464;28;90118;-47
2023/10/06 06:51:12;;;;;;;;;;;20.60;54.90;;;;;;10162393;28;90098;-47
2023/10/06 06:56:17;;;;;;;;;;;20.60;56.50;;;;;;10158698;28;89072;-47
2023/10/06 07:01:19;;;;;;;;;;;20.60;56.70;;;;;;10154458;28;89117;-47
2023/10/06 07:06:21;;;;;;;;;;;20.70;57.10;;;;;;10150537;28;90273;-48
2023/10/06 07:11:23;;;;;;;;;;;20.70;57.50;;;;;;10167804;28;90167;-51
2023/10/06 07:16:25;;;;;;;;;;;20.70;58.10;;;;;;10150770;28;88522;-56
2023/10/06 07:21:28;;;;;;;;;;;20.70;58.00;;;;;;10151762;28;90100;-56
2023/10/06 07:26:31;;;;;;;;;;;20.70;57.90;;;;;;10150782;28;89043;-57
2023/10/06 07:31:32;;;;;;;;;;;20.70;58.00;;;;;;10149440;28;90312;-57
2023/10/06 07:36:35;;;;;;;;;;;20.70;58.20;;;;;;10146721;28;89729;-56
2023/10/06 07:41:37;;;;;;;;;;;20.60;58.30;;;;;;10143598;28;91148;-57
2023/10/06 07:46:39;;;;;;;;;;;20.70;58.60;;;;;;10154195;28;92731;-57
2023/10/06 07:51:42;;;;;;;;;;;20.70;58.80;;;;;;10155774;28;89799;-55
2023/10/06 07:56:47;;;;;;;;;;;20.70;58.90;;;;;;10154766;28;90956;-54
2023/10/06 08:01:49;;;;;;;;;;;20.70;59.00;;;;;;10155851;28;88881;-55
2023/10/06 08:06:51;;;;;;;;;;;20.70;59.10;;;;;;10160327;28;89649;-56
2023/10/06 08:11:55;;;;;;;;;;;20.70;59.30;;;;;;10163519;28;91347;-63
2023/10/06 08:16:57;;;;;;;;;;;20.70;59.40;;;;;;10161224;28;90115;-51
2023/10/06 08:21:59;;;;;;;;;;;20.70;59.70;;;;;;10166641;28;92979;-54
2023/10/06 08:27:04;;;;;;;;;;;20.70;59.90;;;;;;10157972;28;89014;-55
2023/10/06 08:32:06;;;;;;;;;;;20.70;60.10;;;;;;10173175;28;88747;-51
2023/10/06 08:37:11;;;;;;;;;;;20.70;60.10;;;;;;10165398;28;89347;-54
2023/10/06 08:42:15;;;;;;;;;;;20.80;60.20;;;;;;10167359;28;90066;-53
2023/10/06 08:47:18;;;;;;;;;;;20.80;60.30;;;;;;10181230;28;88873;-57
2023/10/06 08:52:32;;;;;;;;;;;20.80;60.40;;;;;;10162682;28;89636;-54
2023/10/06 08:57:34;;;;;;;;;;;20.80;60.50;;;;;;10168595;28;89315;-55
2023/10/06 09:02:36;;;;;;;;;;;20.70;60.50;;;;;;10153290;28;89405;-55
2023/10/06 09:07:38;;;;;;;;;;;20.80;60.70;;;;;;10166811;28;89835;-52
2023/10/06 09:12:42;;;;;;;;;;;20.80;60.80;;;;;;10166025;28;90808;-53
2023/10/06 09:17:45;;;;;;;;;;;20.80;61.00;;;;;;10157239;28;92313;-57
2023/10/06 09:22:49;;;;;;;;;;;20.80;60.90;;;;;;10162825;28;90403;-57
2023/10/06 09:28:04;;;;;;;;;;;20.80;61.10;;;;;;10153986;28;90680;-56
2023/10/06 09:33:08;;;;;;;;;;;20.80;61.20;;;;;;10156912;28;90143;-56
2023/10/06 09:38:14;;;;;;;;;;;20.80;61.30;;;;;;10158372;28;89204;-58
2023/10/06 09:43:16;;;;;;;;;;;20.80;61.40;;;;;;10165882;28;90263;-57
2023/10/06 09:48:39;;;;;;;;;;;20.80;61.50;;;;;;10147672;28;90614;-55
2023/10/06 09:53:43;;;;;;;;;;;20.80;61.60;;;;;;10153970;28;90432;-57
2023/10/06 09:59:07;;;;;;;;;;;20.80;61.70;;;;;;10162707;28;90517;-55
2023/10/06 10:04:12;;;;;;;;;;;20.80;61.80;;;;;;10152552;28;90651;-56
2023/10/06 10:09:17;;;;;;;;;;;20.80;61.90;;;;;;10173830;28;90409;-57
2023/10/06 10:14:19;;;;;;;;;;;20.80;61.90;;;;;;10145971;28;90121;-56
2023/10/06 10:19:22;;;;;;;;;;;20.80;61.90;;;;;;10164786;28;89945;-56
2023/10/06 10:24:25;;;;;;;;;;;20.90;61.90;;;;;;10148839;28;89262;-55
2023/10/06 10:29:30;;;;;;;;;;;20.90;61.90;;;;;;10135343;28;90162;-56
2023/10/06 10:34:54;;;;;;;;;;;20.90;62.00;;;;;;10160453;28;89727;-56
2023/10/06 10:39:56;;;;;;;;;;;20.90;62.10;;;;;;10151536;28;89444;-55
2023/10/06 10:45:17;;;;;;;;;;;20.90;62.30;;;;;;10153636;28;89590;-56
2023/10/06 10:50:18;;;;;;;;;;;20.90;62.30;;;;;;10140881;28;89077;-57
2023/10/06 10:55:26;;;;;;;;;;;20.90;62.40;;;;;;10154676;28;89660;-55
2023/10/06 11:00:29;;;;;;;;;;;20.90;62.40;;;;;;10143915;28;90340;-53
2023/10/06 11:05:34;;;;;;;;;;;20.90;62.50;;;;;;10143695;28;109396;-54
2023/10/06 11:10:38;;;;;;;;;;;20.90;62.50;;;;;;10157777;28;89143;-53
2023/10/06 11:15:40;;;;;;;;;;;21.00;62.50;;;;;;10150587;28;90096;-49
2023/10/06 11:20:41;;;;;;;;;;;21.00;62.60;;;;;;10162877;28;90019;-56
2023/10/06 11:25:48;;;;;;;;;;;21.00;62.50;;;;;;10152744;28;90161;-67
2023/10/06 11:30:50;;;;;;;;;;;21.00;64.60;;;;;;10156284;28;88087;-53
2023/10/06 11:35:54;;;;;;;;;;;21.10;63.20;;;;;;10154201;28;89866;-57
2023/10/06 11:40:57;;;;;;;;;;;21.20;63.00;;;;;;10159269;28;88961;-56
2023/10/06 11:46:02;;;;;;;;;;;21.20;62.90;;;;;;10174487;28;90700;-54
2023/10/06 11:51:06;;;;;;;;;;;21.20;63.10;;;;;;10166981;28;88217;-56
2023/10/06 11:56:10;;;;;;;;;;;21.20;63.10;;;;;;10150481;28;89480;-57
2023/10/06 12:01:31;;;;;;;;;;;21.20;63.20;;;;;;10158365;28;89809;-56
2023/10/06 12:06:39;;;;;;;;;;;21.20;63.40;;;;;;10149922;28;88562;-48
2023/10/06 12:11:41;;;;;;;;;;;21.20;63.80;;;;;;10154221;28;90129;-48
2023/10/06 12:16:44;;;;;;;;;;;21.20;63.90;;;;;;10170146;28;89539;-49
2023/10/06 12:21:48;;;;;;;;;;;21.20;63.90;;;;;;10168949;28;89031;-48
2023/10/06 12:26:49;;;;;;;;;;;21.20;63.90;;;;;;10170960;28;90168;-49
2023/10/06 12:31:51;;;;;;;;;;;21.20;64.10;;;;;;10153496;28;88634;-48
2023/10/06 12:37:01;;;;;;;;;;;21.20;64.10;;;;;;10163008;28;90799;-48
2023/10/06 12:42:03;;;;;;;;;;;21.20;64.00;;;;;;10161211;28;90010;-50
2023/10/06 12:47:10;;;;;;;;;;;21.10;64.00;;;;;;10153276;28;90147;-52
2023/10/06 12:52:12;;;;;;;;;;;21.10;64.00;;;;;;10155555;28;91386;-59
2023/10/06 12:57:14;;;;;;;;;;;21.10;64.00;;;;;;10164219;28;91550;-50
2023/10/06 13:02:24;;;;;;;;;;;21.10;64.20;;;;;;10166514;28;91525;-48
2023/10/06 13:07:31;;;;;;;;;;;21.10;64.30;;;;;;10159778;28;88639;-53
2023/10/06 13:12:42;;;;;;;;;;;21.10;64.30;;;;;;10154500;28;91781;-47
2023/10/06 13:17:44;;;;;;;;;;;21.10;64.30;;;;;;10150875;28;90395;-48
2023/10/06 13:22:47;;;;;;;;;;;21.20;64.50;;;;;;10163506;28;90022;-49
2023/10/06 13:27:49;;;;;;;;;;;21.10;64.70;;;;;;10165154;28;91141;-50
2023/10/06 13:32:53;;;;;;;;;;;21.20;64.80;;;;;;10158962;28;90050;-52
2023/10/06 13:37:57;;;;;;;;;;;21.20;65.00;;;;;;10157085;28;90138;-56
2023/10/06 13:42:59;;;;;;;;;;;21.20;65.20;;;;;;10176091;28;88987;-57
2023/10/06 13:48:00;;;;;;;;;;;21.20;65.10;;;;;;10150779;28;91515;-56
2023/10/06 13:53:06;;;;;;;;;;;21.20;65.10;;;;;;10163374;28;90030;-46
2023/10/06 13:58:08;;;;;;;;;;;21.20;65.00;;;;;;10152161;28;90309;-51
2023/10/06 14:03:14;;;;;;;;;;;21.10;65.00;;;;;;10158043;28;89467;-56
2023/10/06 14:08:17;;;;;;;;;;;21.10;65.00;;;;;;10161317;28;90342;-55
2023/10/06 14:13:27;;;;;;;;;;;21.10;65.00;;;;;;10149592;28;89850;-63
2023/10/06 14:18:32;;;;;;;;;;;21.10;65.00;;;;;;10166317;28;90608;-57
2023/10/06 14:23:39;;;;;;;;;;;21.00;64.90;;;;;;10145940;28;89208;-57
2023/10/06 14:28:42;;;;;;;;;;;21.00;64.90;;;;;;10157015;28;90137;-56
2023/10/06 14:34:09;;;;;;;;;;;21.00;64.90;;;;;;10163504;28;88670;-56
2023/10/06 14:49:53;;;;;;;;;;;21.10;65.10;;;;;;10145437;28;89834;-56
2023/10/06 14:54:55;;;;;;;;;;;21.10;65.40;;;;;;10097535;28;89738;-57
2023/10/06 14:59:57;;;;;;;;;;;21.10;65.20;;;;;;10141454;28;88953;-57
2023/10/06 15:04:59;;;;;;;;;;;21.10;65.30;;;;;;10149160;28;90176;-57
2023/10/06 15:10:01;;;;;;;;;;;21.10;65.50;;;;;;10152113;28;90731;-57
2023/10/06 15:15:03;;;;;;;;;;;21.20;65.40;;;;;;10159512;28;90095;-56
2023/10/06 15:20:06;;;;;;;;;;;21.20;65.50;;;;;;10154573;28;88839;-56
2023/10/06 15:25:10;;;;;;;;;;;21.20;65.40;;;;;;10147753;28;89872;-56
2023/10/06 15:30:16;;;;;;;;;;;21.20;65.40;;;;;;10155720;28;90110;-56
2023/10/06 15:35:18;;;;;;;;;;;21.20;65.60;;;;;;10153157;28;90269;-56
2023/10/06 15:40:20;;;;;;;;;;;21.20;65.50;;;;;;10151038;28;89550;-57
2023/10/06 15:45:22;;;;;;;;;;;21.20;65.40;;;;;;10154424;28;89456;-57
2023/10/06 15:50:27;;;;;;;;;;;21.20;65.40;;;;;;10153178;28;89753;-56
2023/10/06 15:55:32;;;;;;;;;;;21.20;65.50;;;;;;10148889;28;90232;-56
2023/10/06 16:00:38;;;;;;;;;;;21.20;65.70;;;;;;10150260;28;90943;-56
2023/10/06 16:05:40;;;;;;;;;;;21.20;65.60;;;;;;10149604;28;89835;-57
2023/10/06 16:10:42;;;;;;;;;;;21.20;65.70;;;;;;10152954;28;90213;-56
2023/10/06 16:15:44;;;;;;;;;;;21.20;65.70;;;;;;10169004;28;90156;-57
2023/10/06 16:21:11;;;;;;;;;;;21.10;65.70;;;;;;10163306;28;92158;-57
2023/10/06 16:26:13;;;;;;;;;;;21.30;67.40;;;;;;10167062;28;90398;-60
2023/10/06 16:31:15;;;;;;;;;;;21.30;66.70;;;;;;10161511;28;88174;-56
2023/10/06 16:36:21;;;;;;;;;;;21.40;66.40;;;;;;10158825;28;88637;-57
2023/10/06 16:41:23;;;;;;;;;;;21.40;66.70;;;;;;10146893;28;90030;-57
2023/10/06 16:46:25;;;;;;;;;;;21.40;66.80;;;;;;10163209;28;89043;-57
2023/10/06 16:51:29;;;;;;;;;;;21.40;68.10;;;;;;10163267;28;90773;-57
2023/10/06 16:56:31;;;;;;;;;;;21.40;69.50;;;;;;10161670;28;89864;-58
2023/10/06 17:01:34;;;;;;;;;;;21.50;68.70;;;;;;10155698;28;89017;-57
2023/10/06 17:06:37;;;;;;;;;;;21.50;69.00;;;;;;10134655;28;90103;-57
2023/10/06 17:11:39;;;;;;;;;;;21.50;67.30;;;;;;10153664;28;89752;-57
2023/10/06 17:16:41;;;;;;;;;;;21.60;67.70;;;;;;10165951;28;89066;-58
2023/10/06 17:21:43;;;;;;;;;;;21.50;67.80;;;;;;10163367;28;89927;-57
2023/10/06 17:26:46;;;;;;;;;;;21.50;67.60;;;;;;10164798;28;89782;-57
2023/10/06 17:31:47;;;;;;;;;;;21.50;68.20;;;;;;10171326;28;89614;-57
2023/10/06 17:36:49;;;;;;;;;;;21.50;68.10;;;;;;10154186;28;90341;-57
2023/10/06 17:42:11;;;;;;;;;;;21.40;68.40;;;;;;10157646;28;92220;-57
2023/10/06 17:47:13;;;;;;;;;;;21.40;68.30;;;;;;10166241;28;89980;-57
2023/10/06 17:52:15;;;;;;;;;;;21.40;68.00;;;;;;10161670;28;90199;-60
2023/10/06 17:57:17;;;;;;;;;;;21.30;68.20;;;;;;10155236;28;88748;-57
2023/10/06 18:02:19;;;;;;;;;;;21.30;68.40;;;;;;10161705;28;90194;-57
2023/10/06 18:07:21;;;;;;;;;;;21.30;68.50;;;;;;10164607;28;89934;-57
2023/10/06 18:12:23;;;;;;;;;;;21.30;68.70;;;;;;10162875;28;89973;-57
2023/10/06 18:17:26;;;;;;;;;;;21.30;68.50;;;;;;10143879;28;89643;-57
2023/10/06 18:22:28;;;;;;;;;;;21.30;68.60;;;;;;10152957;28;89069;-57
2023/10/06 18:27:30;;;;;;;;;;;21.30;68.40;;;;;;10160339;28;89918;-57
2023/10/06 18:32:32;;;;;;;;;;;21.40;68.30;;;;;;10153096;28;89824;-56
2023/10/06 18:37:34;;;;;;;;;;;21.30;68.30;;;;;;10155976;28;90156;-57
2023/10/06 18:42:35;;;;;;;;;;;21.30;68.20;;;;;;10146882;28;89983;-56
2023/10/06 18:47:37;;;;;;;;;;;21.30;68.30;;;;;;10141941;28;90044;-56
2023/10/06 18:52:39;;;;;;;;;;;21.30;68.20;;;;;;10147299;28;90404;-57
2023/10/06 18:57:41;;;;;;;;;;;21.30;68.30;;;;;;10142895;28;90697;-57
2023/10/06 19:02:45;;;;;;;;;;;21.30;68.30;;;;;;10154451;28;90222;-56
2023/10/06 19:07:47;;;;;;;;;;;21.20;68.40;;;;;;10156552;28;88843;-58
2023/10/06 19:12:49;;;;;;;;;;;21.20;68.20;;;;;;10156328;28;89809;-57
2023/10/06 19:17:51;;;;;;;;;;;21.30;68.30;;;;;;10155767;28;89772;-57
2023/10/06 19:22:55;;;;;;;;;;;21.30;68.70;;;;;;10155184;28;90840;-58
2023/10/06 19:27:57;;;;;;;;;;;21.30;68.70;;;;;;10163292;28;90679;-57
2023/10/06 19:32:59;;;;;;;;;;;21.30;68.70;;;;;;10135226;28;89021;-57
2023/10/06 19:38:02;;;;;;;;;;;21.20;68.70;;;;;;10145453;28;90249;-57
2023/10/06 19:43:04;;;;;;;;;;;21.30;68.70;;;;;;10146266;28;90292;-57
2023/10/06 19:48:06;;;;;;;;;;;21.20;68.60;;;;;;10142807;28;90149;-57
2023/10/06 19:53:11;;;;;;;;;;;21.20;68.60;;;;;;10164238;28;90098;-57
2023/10/06 19:58:13;;;;;;;;;;;21.20;68.60;;;;;;10155737;28;89344;-58
2023/10/06 20:03:15;;;;;;;;;;;21.20;68.60;;;;;;10166303;28;90092;-57
2023/10/06 20:08:17;;;;;;;;;;;21.20;68.60;;;;;;10153402;28;89802;-57
2023/10/06 20:13:19;;;;;;;;;;;21.20;68.50;;;;;;10155480;28;90049;-58
2023/10/06 20:18:21;;;;;;;;;;;21.20;68.40;;;;;;10159067;28;89467;-57
2023/10/06 20:23:23;;;;;;;;;;;21.20;68.40;;;;;;10142385;28;89298;-57
2023/10/06 20:28:25;;;;;;;;;;;21.20;68.50;;;;;;10157470;28;89048;-57
2023/10/06 20:33:27;;;;;;;;;;;21.20;68.60;;;;;;10170782;28;90071;-57
2023/10/06 20:38:31;;;;;;;;;;;21.10;68.50;;;;;;10166062;28;90005;-57
2023/10/06 20:43:33;;;;;;;;;;;21.10;68.60;;;;;;10165432;28;90167;-57
2023/10/06 20:48:35;;;;;;;;;;;21.10;68.70;;;;;;10157243;28;89201;-57
2023/10/06 20:53:37;;;;;;;;;;;21.10;68.60;;;;;;10164776;28;89055;-57
2023/10/06 20:58:38;;;;;;;;;;;21.10;68.60;;;;;;10170744;28;88834;-57
2023/10/06 21:03:40;;;;;;;;;;;21.10;68.70;;;;;;10166017;28;90528;-57
2023/10/06 21:08:43;;;;;;;;;;;21.10;68.80;;;;;;10142834;28;90159;-57
2023/10/06 21:13:45;;;;;;;;;;;21.00;68.70;;;;;;10149575;28;90206;-57
2023/10/06 21:18:46;;;;;;;;;;;21.00;68.60;;;;;;10163489;28;89611;-57
2023/10/06 21:23:48;;;;;;;;;;;21.00;68.70;;;;;;10162775;28;89562;-57
2023/10/06 21:28:55;;;;;;;;;;;21.00;68.70;;;;;;10145409;28;90164;-57
2023/10/06 21:33:58;;;;;;;;;;;21.00;68.70;;;;;;10145144;28;90121;-57
2023/10/06 21:39:01;;;;;;;;;;;21.00;68.70;;;;;;10155820;28;89498;-57
2023/10/06 21:44:03;;;;;;;;;;;21.00;68.70;;;;;;10164313;28;88987;-57
2023/10/06 21:49:05;;;;;;;;;;;21.00;68.60;;;;;;10164782;28;90358;-57
2023/10/06 21:54:07;;;;;;;;;;;21.00;68.50;;;;;;10150778;28;91148;-57
2023/10/06 21:59:10;;;;;;;;;;;21.00;68.40;;;;;;10165602;28;90094;-57
2023/10/06 22:04:12;;;;;;;;;;;21.00;68.50;;;;;;10168121;28;90167;-57
2023/10/06 22:09:15;;;;;;;;;;;21.00;68.30;;;;;;10149945;28;90055;-57
2023/10/06 22:14:19;;;;;;;;;;;21.00;68.20;;;;;;10147720;28;89986;-61
2023/10/06 22:19:21;;;;;;;;;;;20.90;68.10;;;;;;10162587;28;89085;-57
2023/10/06 22:24:23;;;;;;;;;;;20.90;68.10;;;;;;10152301;28;89958;-57
2023/10/06 22:29:25;;;;;;;;;;;20.90;68.00;;;;;;10134156;28;88435;-57
2023/10/06 22:34:27;;;;;;;;;;;21.00;68.00;;;;;;10151694;28;90067;-57
2023/10/06 22:39:29;;;;;;;;;;;20.90;67.90;;;;;;10143523;28;89704;-57
2023/10/06 22:44:31;;;;;;;;;;;20.90;67.90;;;;;;10167645;28;89763;-57
2023/10/06 22:49:33;;;;;;;;;;;21.00;67.80;;;;;;10140741;28;91351;-57
2023/10/06 22:54:34;;;;;;;;;;;20.90;67.60;;;;;;10141371;28;89062;-57
2023/10/06 22:59:36;;;;;;;;;;;20.90;67.60;;;;;;10150331;28;90192;-57
2023/10/06 23:04:38;;;;;;;;;;;20.90;67.60;;;;;;10150255;28;89404;-57
2023/10/06 23:09:41;;;;;;;;;;;20.90;67.60;;;;;;10145686;28;90408;-57
2023/10/06 23:14:43;;;;;;;;;;;20.90;67.60;;;;;;10146750;28;94409;-57
2023/10/06 23:19:45;;;;;;;;;;;20.90;67.50;;;;;;10157158;28;93165;-57
2023/10/06 23:24:49;;;;;;;;;;;20.80;67.40;;;;;;10155988;28;94327;-57
2023/10/06 23:29:53;;;;;;;;;;;20.90;67.50;;;;;;10143086;28;94458;-57
2023/10/06 23:34:55;;;;;;;;;;;20.80;67.40;;;;;;10159592;28;96592;-57
2023/10/06 23:39:57;;;;;;;;;;;20.80;67.50;;;;;;10167888;28;93447;-57
2023/10/06 23:45:05;;;;;;;;;;;20.80;67.50;;;;;;10158074;28;93396;-57
2023/10/06 23:50:10;;;;;;;;;;;20.80;67.40;;;;;;10164487;28;94533;-57
2023/10/06 23:55:16;;;;;;;;;;;20.80;67.50;;;;;;10160419;28;94445;-57
